createdAt,value
2023-01-15T00:01:43.637Z,100130.75
2023-01-15T00:04:23.801Z,100135.13
2023-01-15T00:07:04.537Z,100124.59
2023-01-15T00:09:42.863Z,100130.47
2023-01-15T00:12:24.080Z,100125.28
2023-01-15T00:15:07.298Z,100123.75
2023-01-15T00:17:53.476Z,100122.09
2023-01-15T00:20:31.212Z,100124.09
2023-01-15T00:23:26.428Z,100121.69
2023-01-15T00:26:15.290Z,100121.31
2023-01-15T00:28:51.552Z,100114.84
2023-01-15T00:31:44.233Z,100107.81
2023-01-15T00:34:21.894Z,100113.03
2023-01-15T00:37:04.864Z,100114.13
2023-01-15T00:39:53.337Z,100111.31
2023-01-15T00:42:31.435Z,100105.31
2023-01-15T00:45:11.388Z,100110.50
2023-01-15T00:47:51.123Z,100110.81
2023-01-15T00:50:31.351Z,100107.47
2023-01-15T00:53:19.419Z,100100.56
2023-01-15T00:56:00.117Z,100106.75
2023-01-15T00:58:44.015Z,100104.97
2023-01-15T01:01:26.190Z,100097.81
2023-01-15T01:04:04.460Z,100104.94
2023-01-15T01:06:47.851Z,100098.63
2023-01-15T01:09:25.756Z,100092.25
2023-01-15T01:12:10.001Z,100105.44
2023-01-15T01:14:53.778Z,100097.63
2023-01-15T01:17:31.433Z,100091.09
2023-01-15T01:20:14.409Z,100084.59
2023-01-15T01:23:00.495Z,100086.28
2023-01-15T01:25:38.647Z,100086.28
2023-01-15T01:28:22.169Z,100085.09
2023-01-15T01:30:55.088Z,100077.69
2023-01-15T01:33:36.139Z,100076.25
2023-01-15T01:36:19.403Z,100076.59
2023-01-15T01:39:06.812Z,100063.41
2023-01-15T01:41:42.505Z,100059.69
2023-01-15T01:44:37.284Z,100060.84
2023-01-15T01:47:15.622Z,100056.19
2023-01-15T01:49:55.980Z,100054.56
2023-01-15T01:52:46.437Z,100052.47
2023-01-15T01:55:22.112Z,100058.03
2023-01-15T01:58:06.135Z,100050.53
2023-01-15T02:00:50.534Z,100044.47
2023-01-15T02:03:46.492Z,100037.66
2023-01-15T02:06:35.305Z,100037.66
2023-01-15T02:09:15.665Z,100045.84
2023-01-15T02:12:00.549Z,100035.38
2023-01-15T02:15:03.246Z,100026.34
2023-01-15T02:17:47.566Z,100015.84
2023-01-15T02:20:36.151Z,100017.38
2023-01-15T02:23:59.511Z,100015.97
2023-01-15T02:27:19.866Z,100008.50
2023-01-15T02:30:04.360Z,100012.13
2023-01-15T02:33:01.885Z,100009.66
2023-01-15T02:35:43.322Z,100001.53
2023-01-15T02:38:24.339Z,99987.38
2023-01-15T02:41:06.161Z,99980.19
2023-01-15T02:44:00.390Z,99978.88
2023-01-15T02:46:44.478Z,99992.66
2023-01-15T02:49:23.325Z,99987.44
2023-01-15T02:52:09.771Z,99993.66
2023-01-15T02:55:06.673Z,100001.13
2023-01-15T02:57:50.121Z,99987.16
2023-01-15T03:00:36.978Z,99986.63
2023-01-15T03:03:18.132Z,99984.50
2023-01-15T03:06:21.566Z,99975.34
2023-01-15T03:08:57.903Z,99976.50
2023-01-15T03:11:38.174Z,99975.81
2023-01-15T03:14:26.808Z,99961.47
2023-01-15T03:17:18.955Z,99965.81
2023-01-15T03:19:59.217Z,99973.28
2023-01-15T03:22:44.021Z,99989.13
2023-01-15T03:25:36.391Z,99973.63
2023-01-15T03:28:21.110Z,99962.94
2023-01-15T03:31:07.127Z,99956.47
2023-01-15T03:33:51.514Z,99957.94
2023-01-15T03:36:27.120Z,99951.47
2023-01-15T03:39:17.322Z,99964.47
2023-01-15T03:42:20.375Z,99954.09
2023-01-15T03:45:42.575Z,99945.44
2023-01-15T03:48:28.607Z,99944.94
2023-01-15T03:51:17.518Z,99946.81
2023-01-15T03:54:02.927Z,99953.94
2023-01-15T03:56:59.096Z,99965.09
2023-01-15T03:59:49.096Z,99971.63
2023-01-15T04:02:28.035Z,99960.63
2023-01-15T04:05:06.148Z,99957.59
2023-01-15T04:07:44.884Z,99954.59
2023-01-15T04:10:32.104Z,99952.59
2023-01-15T04:13:13.792Z,99951.47
2023-01-15T04:16:02.404Z,99950.75
2023-01-15T04:18:44.568Z,99943.78
2023-01-15T04:21:22.317Z,99948.44
2023-01-15T04:23:59.983Z,99945.75
2023-01-15T04:26:46.194Z,99941.13
2023-01-15T04:29:20.907Z,99927.78
2023-01-15T04:32:01.772Z,99922.78
2023-01-15T04:34:34.798Z,99927.56
2023-01-15T04:37:25.178Z,99917.59
2023-01-15T04:40:09.535Z,99912.72
2023-01-15T04:42:54.922Z,99928.25
2023-01-15T04:45:29.908Z,99927.72
2023-01-15T04:48:13.114Z,99934.72
2023-01-15T04:51:11.002Z,99921.41
2023-01-15T04:53:46.797Z,99924.69
2023-01-15T04:56:26.841Z,99924.06
2023-01-15T04:59:12.942Z,99928.03
2023-01-15T05:02:03.860Z,99915.06
2023-01-15T05:04:46.973Z,99915.06
2023-01-15T05:07:22.943Z,99912.22
2023-01-15T05:10:00.477Z,99913.22
2023-01-15T05:12:45.737Z,99909.56
2023-01-15T05:15:29.556Z,99907.72
2023-01-15T05:18:04.783Z,99908.09
2023-01-15T05:20:46.006Z,99914.38
2023-01-15T05:23:29.504Z,99907.25
2023-01-15T05:26:13.716Z,99896.09
2023-01-15T05:29:01.704Z,99894.88
2023-01-15T05:31:37.225Z,99894.41
2023-01-15T05:34:12.395Z,99896.41
2023-01-15T05:36:57.688Z,99883.41
2023-01-15T05:39:35.150Z,99887.75
2023-01-15T05:42:20.850Z,99880.09
2023-01-15T05:44:58.674Z,99878.91
2023-01-15T05:47:39.289Z,99878.06
2023-01-15T05:50:17.200Z,99871.06
2023-01-15T05:53:08.339Z,99872.09
2023-01-15T05:55:46.261Z,99869.09
2023-01-15T05:58:24.746Z,99862.59
2023-01-15T06:01:09.163Z,99858.41
2023-01-15T06:03:51.286Z,99859.59
2023-01-15T06:06:35.564Z,99840.72
2023-01-15T06:09:21.686Z,99837.22
2023-01-15T06:12:15.213Z,99847.06
2023-01-15T06:14:50.690Z,99849.75
2023-01-15T06:17:28.330Z,99852.75
2023-01-15T06:20:12.142Z,99857.59
2023-01-15T06:22:44.452Z,99853.25
2023-01-15T06:25:20.121Z,99848.91
2023-01-15T06:27:55.172Z,99854.06
2023-01-15T06:30:36.121Z,99864.72
2023-01-15T06:33:15.102Z,99855.06
2023-01-15T06:35:53.354Z,99854.25
2023-01-15T06:38:28.562Z,99853.41
2023-01-15T06:41:25.252Z,99849.09
2023-01-15T06:44:16.436Z,99847.78
2023-01-15T06:47:09.297Z,99845.75
2023-01-15T06:49:44.397Z,99831.06
2023-01-15T06:52:17.378Z,99831.91
2023-01-15T06:54:58.201Z,99834.25
2023-01-15T06:57:41.267Z,99833.41
2023-01-15T07:00:28.100Z,99843.75
2023-01-15T07:03:11.270Z,99838.41
2023-01-15T07:05:52.059Z,99842.41
2023-01-15T07:08:30.347Z,99845.41
2023-01-15T07:11:13.492Z,99841.41
2023-01-15T07:14:05.982Z,99843.09
2023-01-15T07:16:42.198Z,99844.91
2023-01-15T07:19:20.949Z,99838.75
2023-01-15T07:21:51.017Z,99840.22
2023-01-15T07:24:31.818Z,99838.38
2023-01-15T07:27:06.523Z,99841.22
2023-01-15T07:29:44.831Z,99837.34
2023-01-15T07:32:25.062Z,99836.19
2023-01-15T07:35:00.878Z,99838.72
2023-01-15T07:37:44.071Z,99825.34
2023-01-15T07:40:16.975Z,99820.81
2023-01-15T07:43:08.321Z,99819.66
2023-01-15T07:46:01.020Z,99833.69
2023-01-15T07:48:51.950Z,99822.81
2023-01-15T07:51:29.559Z,99830.47
2023-01-15T07:54:15.676Z,99827.31
2023-01-15T07:57:00.114Z,99829.63
2023-01-15T07:59:44.430Z,99818.28
2023-01-15T08:02:35.362Z,99812.94
2023-01-15T08:05:15.885Z,99801.72
2023-01-15T08:07:50.061Z,99810.59
2023-01-15T08:10:26.277Z,99814.25
2023-01-15T08:13:26.013Z,99813.22
2023-01-15T08:16:04.151Z,99813.03
2023-01-15T08:18:38.832Z,99815.50
2023-01-15T08:21:25.002Z,99818.38
2023-01-15T08:23:58.414Z,99814.69
2023-01-15T08:26:44.587Z,99808.81
2023-01-15T08:29:22.456Z,99811.19
2023-01-15T08:32:03.447Z,99798.44
2023-01-15T08:34:47.139Z,99802.72
2023-01-15T08:37:20.252Z,99798.03
2023-01-15T08:40:01.088Z,99800.41
2023-01-15T08:42:44.346Z,99798.34
2023-01-15T08:45:22.652Z,99802.66
2023-01-15T08:48:13.565Z,99809.50
2023-01-15T08:50:54.110Z,99802.22
2023-01-15T08:53:31.727Z,99807.50
2023-01-15T08:56:17.000Z,99800.44
2023-01-15T08:58:52.699Z,99800.50
2023-01-15T09:01:36.102Z,99804.44
2023-01-15T09:04:19.292Z,99793.06
2023-01-15T09:06:56.056Z,99784.75
2023-01-15T09:09:34.160Z,99788.19
2023-01-15T09:12:07.193Z,99778.56
2023-01-15T09:14:56.844Z,99782.13
2023-01-15T09:17:46.177Z,99773.06
2023-01-15T09:20:24.421Z,99764.63
2023-01-15T09:23:02.638Z,99762.84
2023-01-15T09:25:45.893Z,99765.63
2023-01-15T09:28:34.841Z,99752.91
2023-01-15T09:31:13.131Z,99739.94
2023-01-15T09:33:56.580Z,99743.84
2023-01-15T09:36:43.858Z,99732.59
2023-01-15T09:39:21.541Z,99736.09
2023-01-15T09:42:18.174Z,99738.13
2023-01-15T09:45:14.673Z,99730.34
2023-01-15T09:48:11.799Z,99719.75
2023-01-15T09:51:04.021Z,99707.16
2023-01-15T09:53:47.433Z,99697.56
2023-01-15T09:56:28.623Z,99693.19
2023-01-15T09:59:12.502Z,99690.53
2023-01-15T10:01:51.497Z,99682.38
2023-01-15T10:04:43.515Z,99669.09
2023-01-15T10:07:25.158Z,99667.09
2023-01-15T10:10:04.418Z,99661.31
2023-01-15T10:12:47.272Z,99659.97
2023-01-15T10:15:30.425Z,99656.47
2023-01-15T10:18:14.132Z,99659.28
2023-01-15T10:21:48.225Z,99651.81
2023-01-15T10:24:42.041Z,99632.44
2023-01-15T10:27:30.230Z,99627.28
2023-01-15T10:30:37.564Z,99630.66
2023-01-15T10:33:46.498Z,99616.69
2023-01-15T10:36:28.150Z,99608.25
2023-01-15T10:39:19.108Z,99604.72
2023-01-15T10:42:07.920Z,99606.13
2023-01-15T10:45:01.750Z,99601.09
2023-01-15T10:47:51.332Z,99595.72
2023-01-15T10:50:35.559Z,99594.56
2023-01-15T10:53:22.165Z,99572.63
2023-01-15T10:56:03.936Z,99562.03
2023-01-15T10:59:08.675Z,99576.53
2023-01-15T11:01:49.096Z,99569.69
2023-01-15T11:04:25.816Z,99567.00
2023-01-15T11:07:00.681Z,99564.38
2023-01-15T11:09:35.956Z,99557.25
2023-01-15T11:12:25.603Z,99557.44
2023-01-15T11:15:13.944Z,99542.31
2023-01-15T11:18:06.897Z,99544.22
2023-01-15T11:20:51.610Z,99537.22
2023-01-15T11:23:35.333Z,99536.34
2023-01-15T11:26:15.605Z,99527.25
2023-01-15T11:29:08.948Z,99523.34
2023-01-15T11:31:45.843Z,99521.47
2023-01-15T11:34:27.727Z,99519.38
2023-01-15T11:37:13.492Z,99514.31
2023-01-15T11:40:00.431Z,99511.78
2023-01-15T11:42:55.053Z,99493.47
2023-01-15T11:45:46.203Z,99497.00
2023-01-15T11:48:44.352Z,99485.22
2023-01-15T11:51:16.152Z,99468.31
2023-01-15T11:54:02.404Z,99459.47
2023-01-15T11:56:42.148Z,99453.84
2023-01-15T11:59:26.004Z,99453.66
2023-01-15T12:02:04.337Z,99448.91
2023-01-15T12:04:53.110Z,99438.97
2023-01-15T12:07:26.189Z,99427.19
2023-01-15T12:10:23.261Z,99426.16
2023-01-15T12:13:18.420Z,99430.91
2023-01-15T12:16:31.947Z,99434.00
2023-01-15T12:19:30.870Z,99436.47
2023-01-15T12:22:24.806Z,99444.13
2023-01-15T12:25:14.467Z,99441.25
2023-01-15T12:27:58.150Z,99442.09
2023-01-15T12:30:41.983Z,99446.44
2023-01-15T12:33:22.100Z,99449.31
2023-01-15T12:36:19.983Z,99446.66
2023-01-15T12:39:16.548Z,99442.69
2023-01-15T12:42:11.567Z,99443.53
2023-01-15T12:45:05.059Z,99443.94
2023-01-15T12:47:57.986Z,99434.63
2023-01-15T12:50:53.643Z,99429.47
2023-01-15T12:53:52.848Z,99419.53
2023-01-15T12:57:02.898Z,99419.34
2023-01-15T12:59:48.519Z,99422.25
2023-01-15T13:02:36.462Z,99420.38
2023-01-15T13:05:32.352Z,99419.53
2023-01-15T13:08:53.491Z,99403.81
2023-01-15T13:11:28.664Z,99399.28
2023-01-15T13:14:23.048Z,99386.06
2023-01-15T13:17:15.056Z,99386.44
2023-01-15T13:20:08.144Z,99384.00
2023-01-15T13:23:04.824Z,99387.28
2023-01-15T13:25:49.603Z,99376.97
2023-01-15T13:28:53.051Z,99382.28
2023-01-15T13:31:43.295Z,99375.28
2023-01-15T13:34:42.207Z,99375.91
2023-01-15T13:37:26.254Z,99373.22
2023-01-15T13:40:15.643Z,99372.38
2023-01-15T13:43:03.055Z,99363.50
2023-01-15T13:45:59.554Z,99369.06
2023-01-15T13:48:52.079Z,99366.81
2023-01-15T13:51:45.112Z,99361.22
2023-01-15T13:54:44.487Z,99356.28
2023-01-15T13:57:43.251Z,99364.53
2023-01-15T14:00:40.339Z,99346.38
2023-01-15T14:03:33.010Z,99351.13
2023-01-15T14:06:08.469Z,99343.88
2023-01-15T14:08:46.457Z,99340.78
2023-01-15T14:11:57.383Z,99348.00
2023-01-15T14:14:43.124Z,99341.41
2023-01-15T14:17:33.993Z,99341.41
2023-01-15T14:20:34.093Z,99340.16
2023-01-15T14:23:32.530Z,99350.06
2023-01-15T14:26:31.198Z,99343.25
2023-01-15T14:29:22.282Z,99341.59
2023-01-15T14:32:12.029Z,99339.09
2023-01-15T14:35:10.552Z,99336.84
2023-01-15T14:38:09.515Z,99331.84
2023-01-15T14:40:51.833Z,99327.28
2023-01-15T14:43:31.401Z,99324.41
2023-01-15T14:46:22.451Z,99323.97
2023-01-15T14:49:00.111Z,99327.31
2023-01-15T14:51:38.318Z,99318.22
2023-01-15T14:54:22.071Z,99321.28
2023-01-15T14:57:04.304Z,99321.72
2023-01-15T15:00:04.041Z,99318.63
2023-01-15T15:02:51.101Z,99313.19
2023-01-15T15:05:29.758Z,99310.75
2023-01-15T15:08:06.562Z,99307.06
2023-01-15T15:10:49.604Z,99316.34
2023-01-15T15:13:37.954Z,99311.34
2023-01-15T15:16:21.175Z,99309.91
2023-01-15T15:19:14.260Z,99309.09
2023-01-15T15:21:56.010Z,99301.63
2023-01-15T15:24:45.761Z,99292.97
2023-01-15T15:27:38.089Z,99286.56
2023-01-15T15:30:21.041Z,99284.47
2023-01-15T15:33:02.530Z,99277.47
2023-01-15T15:35:41.093Z,99276.19
2023-01-15T15:38:24.740Z,99271.09
2023-01-15T15:41:07.515Z,99271.91
2023-01-15T15:44:33.848Z,99263.44
2023-01-15T15:47:45.730Z,99268.97
2023-01-15T15:50:32.115Z,99275.81
2023-01-15T15:53:09.103Z,99261.56
2023-01-15T15:55:50.038Z,99260.13
2023-01-15T15:58:41.111Z,99265.22
2023-01-15T16:01:15.637Z,99260.09
2023-01-15T16:03:56.903Z,99264.06
2023-01-15T16:06:35.062Z,99269.84
2023-01-15T16:09:18.437Z,99266.50
2023-01-15T16:12:07.378Z,99266.06
2023-01-15T16:14:49.221Z,99255.72
2023-01-15T16:17:28.335Z,99262.09
2023-01-15T16:20:21.033Z,99265.22
2023-01-15T16:23:04.448Z,99259.25
2023-01-15T16:25:48.610Z,99261.72
2023-01-15T16:28:52.719Z,99268.31
2023-01-15T16:31:24.886Z,99268.50
2023-01-15T16:34:04.286Z,99260.28
2023-01-15T16:36:47.646Z,99262.09
2023-01-15T16:39:50.946Z,99268.50
2023-01-15T16:42:48.958Z,99279.41
2023-01-15T16:45:30.117Z,99272.44
2023-01-15T16:48:30.195Z,99273.03
2023-01-15T16:51:43.220Z,99264.78
2023-01-15T16:54:47.626Z,99273.06
2023-01-15T16:57:32.575Z,99269.34
2023-01-15T17:00:22.943Z,99262.31
2023-01-15T17:02:59.080Z,99263.19
2023-01-15T17:05:37.221Z,99257.41
2023-01-15T17:08:21.878Z,99252.22
2023-01-15T17:11:13.021Z,99252.41
2023-01-15T17:13:48.383Z,99244.97
2023-01-15T17:16:29.610Z,99253.66
2023-01-15T17:19:08.048Z,99254.03
2023-01-15T17:21:47.645Z,99242.06
2023-01-15T17:24:23.079Z,99247.47
2023-01-15T17:27:08.608Z,99237.16
2023-01-15T17:29:47.720Z,99237.94
2023-01-15T17:32:30.025Z,99228.03
2023-01-15T17:35:22.760Z,99239.16
2023-01-15T17:38:03.470Z,99238.75
2023-01-15T17:40:39.058Z,99248.63
2023-01-15T17:43:35.483Z,99242.00
2023-01-15T17:46:14.948Z,99245.31
2023-01-15T17:48:57.159Z,99251.69
2023-01-15T17:51:44.058Z,99253.06
2023-01-15T17:54:33.854Z,99255.16
2023-01-15T17:57:28.416Z,99245.44
2023-01-15T18:00:19.273Z,99239.88
2023-01-15T18:03:13.661Z,99244.38
2023-01-15T18:05:53.983Z,99236.53
2023-01-15T18:08:34.870Z,99245.56
2023-01-15T18:11:13.522Z,99245.56
2023-01-15T18:13:52.639Z,99234.91
2023-01-15T18:16:36.556Z,99232.25
2023-01-15T18:19:17.252Z,99225.91
2023-01-15T18:21:52.905Z,99224.22
2023-01-15T18:24:33.455Z,99220.50
2023-01-15T18:27:21.153Z,99223.41
2023-01-15T18:29:53.953Z,99221.72
2023-01-15T18:32:33.400Z,99209.59
2023-01-15T18:35:12.192Z,99211.00
2023-01-15T18:37:50.308Z,99202.31
2023-01-15T18:40:29.709Z,99199.44
2023-01-15T18:43:24.040Z,99198.56
2023-01-15T18:46:09.525Z,99206.91
2023-01-15T18:48:55.761Z,99216.81
2023-01-15T18:51:35.068Z,99220.28
2023-01-15T18:54:18.798Z,99217.59
2023-01-15T18:56:59.572Z,99216.97
2023-01-15T18:59:40.445Z,99220.94
2023-01-15T19:02:14.642Z,99225.44
2023-01-15T19:05:13.059Z,99227.53
2023-01-15T19:07:53.342Z,99231.63
2023-01-15T19:10:33.824Z,99225.03
2023-01-15T19:13:20.408Z,99228.72
2023-01-15T19:16:24.200Z,99218.84
2023-01-15T19:19:03.649Z,99223.81
2023-01-15T19:21:47.513Z,99218.03
2023-01-15T19:24:33.848Z,99229.03
2023-01-15T19:27:18.294Z,99223.66
2023-01-15T19:29:53.449Z,99229.66
2023-01-15T19:32:28.738Z,99222.44
2023-01-15T19:35:04.273Z,99227.38
2023-01-15T19:37:47.797Z,99226.75
2023-01-15T19:40:30.364Z,99223.88
2023-01-15T19:43:18.545Z,99224.53
2023-01-15T19:46:07.595Z,99211.13
2023-01-15T19:48:59.431Z,99206.81
2023-01-15T19:51:53.255Z,99203.56
2023-01-15T19:54:48.209Z,99206.41
2023-01-15T19:57:41.167Z,99205.16
2023-01-15T20:00:26.496Z,99207.22
2023-01-15T20:03:05.501Z,99201.88
2023-01-15T20:05:43.996Z,99203.09
2023-01-15T20:08:23.064Z,99209.91
2023-01-15T20:11:10.145Z,99201.41
2023-01-15T20:13:57.299Z,99198.75
2023-01-15T20:16:39.117Z,99210.13
2023-01-15T20:19:16.597Z,99206.81
2023-01-15T20:22:00.439Z,99196.50
2023-01-15T20:24:44.715Z,99200.84
2023-01-15T20:27:22.985Z,99189.06
2023-01-15T20:30:22.483Z,99185.34
2023-01-15T20:33:14.162Z,99195.53
2023-01-15T20:35:54.424Z,99199.44
2023-01-15T20:38:30.860Z,99200.25
2023-01-15T20:41:41.756Z,99211.59
2023-01-15T20:44:37.399Z,99216.34
2023-01-15T20:47:27.243Z,99216.31
2023-01-15T20:50:05.575Z,99217.94
2023-01-15T20:52:50.314Z,99217.94
2023-01-15T20:55:34.003Z,99217.50
2023-01-15T20:58:19.489Z,99217.03
2023-01-15T21:00:56.546Z,99214.56
2023-01-15T21:03:40.432Z,99220.75
2023-01-15T21:06:21.141Z,99221.66
2023-01-15T21:08:58.935Z,99214.41
2023-01-15T21:11:52.443Z,99213.75
2023-01-15T21:14:35.270Z,99221.78
2023-01-15T21:17:15.605Z,99219.13
2023-01-15T21:19:56.354Z,99215.41
2023-01-15T21:22:49.038Z,99209.81
2023-01-15T21:25:43.889Z,99209.00
2023-01-15T21:28:25.075Z,99208.81
2023-01-15T21:31:07.090Z,99209.50
2023-01-15T21:33:54.427Z,99206.91
2023-01-15T21:36:39.023Z,99206.91
2023-01-15T21:39:18.774Z,99203.63
2023-01-15T21:42:19.097Z,99207.13
2023-01-15T21:45:02.757Z,99208.16
2023-01-15T21:47:43.793Z,99208.16
2023-01-15T21:50:28.099Z,99215.81
2023-01-15T21:53:15.952Z,99207.53
2023-01-15T21:55:58.705Z,99201.31
2023-01-15T21:58:40.955Z,99200.50
2023-01-15T22:01:39.168Z,99201.31
2023-01-15T22:04:19.376Z,99190.47
2023-01-15T22:07:06.301Z,99180.75
2023-01-15T22:09:53.189Z,99190.47
2023-01-15T22:12:38.231Z,99185.25
2023-01-15T22:15:30.846Z,99177.81
2023-01-15T22:18:11.602Z,99170.63
2023-01-15T22:21:01.625Z,99169.19
2023-01-15T22:23:42.788Z,99167.47
2023-01-15T22:26:38.025Z,99170.97
2023-01-15T22:29:36.338Z,99163.75
2023-01-15T22:32:22.153Z,99159.19
2023-01-15T22:35:07.373Z,99161.88
2023-01-15T22:37:53.010Z,99168.22
2023-01-15T22:40:30.797Z,99167.88
2023-01-15T22:43:27.348Z,99163.25
2023-01-15T22:46:17.431Z,99155.53
2023-01-15T22:49:01.367Z,99141.31
2023-01-15T22:51:49.755Z,99135.56
2023-01-15T22:54:42.366Z,99145.06
2023-01-15T22:57:18.120Z,99150.72
2023-01-15T23:00:08.001Z,99154.84
2023-01-15T23:03:05.303Z,99159.22
2023-01-15T23:06:03.077Z,99168.41
2023-01-15T23:08:42.455Z,99174.00
2023-01-15T23:11:21.068Z,99168.75
2023-01-15T23:14:00.307Z,99169.94
2023-01-15T23:16:55.647Z,99168.66
2023-01-15T23:19:46.019Z,99163.28
2023-01-15T23:22:35.024Z,99168.66
2023-01-15T23:25:10.378Z,99171.31
2023-01-15T23:27:51.209Z,99163.47
2023-01-15T23:30:45.551Z,99171.31
2023-01-15T23:33:32.124Z,99157.94
2023-01-15T23:36:07.031Z,99155.66
2023-01-15T23:38:46.834Z,99152.34
2023-01-15T23:41:43.523Z,99144.34
2023-01-15T23:44:41.515Z,99148.47
2023-01-15T23:47:24.482Z,99142.28
2023-01-15T23:50:05.564Z,99132.31
2023-01-15T23:52:44.284Z,99116.69
2023-01-15T23:55:24.975Z,99119.34
2023-01-15T23:58:20.121Z,99102.19
